Time;durP1;ratioP1;P1;durP2;ratioP2;P2;SDS_P1;SDS_P2;PMS_P1;PMS_P2;Temp;Humidity;BMP_temperature;BMP_pressure;BME280_temperature;BME280_humidity;BME280_pressure;Samples;Min_cycle;Max_cycle;Signal;HPM_P1;HPM_P2
2022/03/10 00:00:05;;;;;;;11.30;6.88;;;;;;;;;;4981654;28;20075;-50
2022/03/10 00:02:31;;;;;;;9.75;6.38;;;;;;;;;;4983007;28;20033;-50
2022/03/10 00:04:56;;;;;;;10.27;6.30;;;;;;;;;;4984563;28;20153;-49
2022/03/10 00:07:21;;;;;;;11.03;6.73;;;;;;;;;;4987274;28;20061;-51
2022/03/10 00:09:47;;;;;;;9.73;6.20;;;;;;;;;;4996072;28;20335;-51
2022/03/10 00:12:12;;;;;;;10.70;6.60;;;;;;;;;;4995547;28;20272;-49
2022/03/10 00:14:37;;;;;;;9.87;6.90;;;;;;;;;;4994518;28;20050;-49
2022/03/10 00:17:03;;;;;;;10.40;6.67;;;;;;;;;;4996514;28;20029;-50
2022/03/10 00:19:28;;;;;;;9.55;6.60;;;;;;;;;;4994767;28;20034;-49
2022/03/10 00:21:53;;;;;;;10.37;6.73;;;;;;;;;;4989874;28;20032;-50
2022/03/10 00:24:19;;;;;;;9.63;6.17;;;;;;;;;;4990739;28;20673;-50
2022/03/10 00:26:44;;;;;;;9.70;6.57;;;;;;;;;;4984456;28;20486;-49
2022/03/10 00:29:10;;;;;;;10.77;6.75;;;;;;;;;;4982851;28;20050;-51
2022/03/10 00:31:35;;;;;;;9.65;6.47;;;;;;;;;;4981764;28;20485;-50
2022/03/10 00:34:00;;;;;;;10.82;6.80;;;;;;;;;;4981368;28;20098;-48
2022/03/10 00:36:26;;;;;;;8.70;6.05;;;;;;;;;;4981264;28;20393;-49
2022/03/10 00:38:51;;;;;;;8.65;5.80;;;;;;;;;;4980371;28;20110;-49
2022/03/10 00:41:18;;;;;;;10.33;6.27;;;;;;;;;;4987630;28;20030;-50
2022/03/10 00:43:44;;;;;;;10.10;6.28;;;;;;;;;;5003883;28;20022;-51
2022/03/10 00:46:10;;;;;;;11.30;6.68;;;;;;;;;;5002945;28;20026;-49
2022/03/10 00:48:36;;;;;;;9.85;6.20;;;;;;;;;;4989465;28;20513;-50
2022/03/10 00:51:05;;;;;;;10.70;6.75;;;;;;;;;;4983908;28;20022;-49
2022/03/10 00:53:31;;;;;;;10.18;6.05;;;;;;;;;;4982506;28;20185;-49
2022/03/10 00:55:57;;;;;;;10.23;6.32;;;;;;;;;;4983845;28;20058;-49
2022/03/10 00:58:22;;;;;;;9.25;6.22;;;;;;;;;;4983800;28;20041;-49
2022/03/10 01:00:51;;;;;;;8.63;5.97;;;;;;;;;;4984206;28;20788;-50
2022/03/10 01:03:16;;;;;;;10.98;6.13;;;;;;;;;;4984332;28;20273;-49
2022/03/10 01:05:41;;;;;;;9.17;5.93;;;;;;;;;;4984229;28;20096;-49
2022/03/10 01:08:06;;;;;;;10.73;6.30;;;;;;;;;;4983745;28;20261;-50
2022/03/10 01:10:32;;;;;;;10.47;6.20;;;;;;;;;;4983962;28;20030;-50
2022/03/10 01:12:57;;;;;;;9.68;6.05;;;;;;;;;;4984379;28;20293;-49
2022/03/10 01:15:23;;;;;;;9.65;6.40;;;;;;;;;;4984573;28;20026;-50
2022/03/10 01:17:49;;;;;;;9.35;6.07;;;;;;;;;;4983746;28;20073;-49
2022/03/10 01:20:14;;;;;;;10.00;6.35;;;;;;;;;;4983123;28;20065;-49
2022/03/10 01:22:39;;;;;;;8.43;5.80;;;;;;;;;;4984011;28;20652;-49
2022/03/10 01:25:05;;;;;;;9.10;6.18;;;;;;;;;;4983342;28;20576;-49
2022/03/10 01:27:30;;;;;;;10.40;6.13;;;;;;;;;;4983754;28;20069;-49
2022/03/10 01:29:55;;;;;;;8.83;5.90;;;;;;;;;;4983793;28;20034;-49
2022/03/10 01:32:21;;;;;;;9.40;6.00;;;;;;;;;;4984188;28;20369;-49
2022/03/10 01:34:46;;;;;;;8.35;5.43;;;;;;;;;;4985181;28;20278;-49
2022/03/10 01:37:11;;;;;;;9.33;5.77;;;;;;;;;;4985280;28;20045;-49
2022/03/10 01:39:36;;;;;;;9.07;5.57;;;;;;;;;;4985186;28;20062;-49
2022/03/10 01:42:06;;;;;;;9.10;5.87;;;;;;;;;;4985306;28;20042;-49
2022/03/10 01:44:31;;;;;;;11.05;6.85;;;;;;;;;;4983465;28;20281;-50
2022/03/10 01:46:57;;;;;;;7.93;5.30;;;;;;;;;;4983375;28;20076;-50
2022/03/10 01:49:22;;;;;;;9.05;5.35;;;;;;;;;;4983763;28;20026;-49
2022/03/10 01:51:47;;;;;;;8.25;5.55;;;;;;;;;;4983857;28;20037;-49
2022/03/10 01:54:13;;;;;;;8.32;5.57;;;;;;;;;;4985406;28;20055;-49
2022/03/10 01:56:38;;;;;;;7.93;5.50;;;;;;;;;;4984995;28;20022;-50
2022/03/10 01:59:04;;;;;;;8.50;5.50;;;;;;;;;;4985223;28;20269;-50
2022/03/10 02:01:30;;;;;;;9.40;5.50;;;;;;;;;;4985653;28;20034;-49
2022/03/10 02:03:58;;;;;;;9.00;5.47;;;;;;;;;;4984695;28;20441;-49
2022/03/10 02:06:23;;;;;;;8.25;5.80;;;;;;;;;;4984594;28;20105;-49
2022/03/10 02:11:32;;;;;;;8.07;5.30;;;;;;;;;;4984261;28;20113;-48
2022/03/10 02:13:57;;;;;;;7.60;5.10;;;;;;;;;;4983679;28;20109;-49
2022/03/10 02:19:06;;;;;;;8.18;5.32;;;;;;;;;;4983618;28;20033;-49
2022/03/10 02:21:32;;;;;;;8.35;5.32;;;;;;;;;;4983261;28;20771;-48
2022/03/10 02:23:57;;;;;;;7.50;5.07;;;;;;;;;;4983437;28;20019;-49
2022/03/10 02:26:22;;;;;;;8.03;5.77;;;;;;;;;;4982984;28;20285;-50
2022/03/10 02:28:48;;;;;;;9.07;5.33;;;;;;;;;;4982799;28;20949;-49
2022/03/10 02:31:14;;;;;;;8.50;5.75;;;;;;;;;;4982819;28;20286;-49
2022/03/10 02:33:39;;;;;;;7.30;5.43;;;;;;;;;;4983342;28;20056;-49
2022/03/10 02:36:05;;;;;;;8.27;5.43;;;;;;;;;;4992148;28;20462;-49
2022/03/10 02:38:30;;;;;;;6.95;4.78;;;;;;;;;;5002093;28;20026;-49
2022/03/10 02:40:56;;;;;;;8.90;5.50;;;;;;;;;;4986228;28;20046;-49
2022/03/10 02:43:21;;;;;;;8.13;5.43;;;;;;;;;;4982888;28;20452;-49
2022/03/10 02:45:47;;;;;;;8.27;5.10;;;;;;;;;;4982683;28;20421;-49
2022/03/10 02:48:13;;;;;;;7.07;4.93;;;;;;;;;;4981791;28;20026;-49
2022/03/10 02:50:38;;;;;;;7.72;5.40;;;;;;;;;;4981700;28;20417;-49
2022/03/10 02:53:05;;;;;;;8.53;5.83;;;;;;;;;;4982386;28;20492;-50
2022/03/10 02:55:30;;;;;;;8.32;4.88;;;;;;;;;;4982202;28;20278;-49
2022/03/10 02:57:55;;;;;;;10.15;5.20;;;;;;;;;;4982705;28;20019;-49
2022/03/10 03:00:20;;;;;;;6.43;4.73;;;;;;;;;;4982329;28;20477;-49
2022/03/10 03:02:46;;;;;;;6.77;4.77;;;;;;;;;;4982261;28;20677;-48
2022/03/10 03:05:14;;;;;;;6.90;4.63;;;;;;;;;;4982272;28;20548;-49
2022/03/10 03:07:40;;;;;;;8.02;5.03;;;;;;;;;;4982108;28;20022;-49
2022/03/10 03:10:05;;;;;;;7.03;5.05;;;;;;;;;;4982422;28;20080;-49
2022/03/10 03:12:31;;;;;;;6.63;4.80;;;;;;;;;;4982372;28;20018;-49
2022/03/10 03:14:56;;;;;;;7.53;4.90;;;;;;;;;;4981113;28;20107;-49
2022/03/10 03:17:21;;;;;;;7.40;4.80;;;;;;;;;;4981301;28;20022;-48
2022/03/10 03:19:47;;;;;;;7.50;4.78;;;;;;;;;;4980324;28;20293;-50
2022/03/10 03:22:12;;;;;;;8.45;5.88;;;;;;;;;;5013915;28;20113;-48
2022/03/10 03:24:37;;;;;;;7.40;5.00;;;;;;;;;;4982190;28;20018;-48
2022/03/10 03:27:03;;;;;;;6.95;4.50;;;;;;;;;;4982161;28;20274;-49
2022/03/10 03:29:28;;;;;;;8.45;5.25;;;;;;;;;;4982506;28;20042;-48
2022/03/10 03:31:53;;;;;;;7.03;4.50;;;;;;;;;;4982486;28;20030;-49
2022/03/10 03:34:18;;;;;;;6.90;4.67;;;;;;;;;;4982485;28;20105;-49
2022/03/10 03:36:44;;;;;;;6.20;4.23;;;;;;;;;;4982384;28;20348;-49
2022/03/10 03:39:09;;;;;;;6.00;4.63;;;;;;;;;;4982530;28;20489;-49
2022/03/10 03:41:34;;;;;;;6.60;4.40;;;;;;;;;;4982547;28;20045;-49
2022/03/10 03:44:00;;;;;;;6.88;4.72;;;;;;;;;;4982745;28;20409;-49
2022/03/10 03:46:25;;;;;;;6.40;4.27;;;;;;;;;;4982581;28;20072;-49
2022/03/10 03:48:50;;;;;;;6.53;4.67;;;;;;;;;;4980510;28;20281;-50
2022/03/10 03:51:15;;;;;;;7.68;4.80;;;;;;;;;;4982032;28;20622;-49
2022/03/10 03:53:41;;;;;;;5.80;3.97;;;;;;;;;;4981975;28;20046;-49
2022/03/10 03:56:06;;;;;;;7.00;4.30;;;;;;;;;;4982477;28;20270;-50
2022/03/10 03:58:31;;;;;;;7.03;4.47;;;;;;;;;;4982452;28;20269;-50
2022/03/10 04:00:56;;;;;;;7.00;4.35;;;;;;;;;;4982010;28;20831;-52
2022/03/10 04:03:22;;;;;;;7.50;4.20;;;;;;;;;;4981568;28;20724;-51
2022/03/10 04:05:47;;;;;;;6.47;3.90;;;;;;;;;;4981325;28;20033;-52
2022/03/10 04:08:12;;;;;;;5.67;3.80;;;;;;;;;;4981456;28;20398;-50
2022/03/10 04:10:38;;;;;;;5.63;3.90;;;;;;;;;;4981215;28;20313;-49
2022/03/10 04:13:03;;;;;;;5.55;4.10;;;;;;;;;;4979830;28;20269;-51
2022/03/10 04:15:29;;;;;;;6.07;4.43;;;;;;;;;;4980106;28;20044;-50
2022/03/10 04:17:54;;;;;;;5.47;3.92;;;;;;;;;;4981107;28;20076;-50
2022/03/10 04:20:20;;;;;;;5.72;3.80;;;;;;;;;;4980374;28;20108;-50
2022/03/10 04:22:45;;;;;;;5.40;4.00;;;;;;;;;;4980285;28;20019;-49
2022/03/10 04:25:11;;;;;;;5.40;3.60;;;;;;;;;;4977183;28;20281;-49
2022/03/10 04:27:36;;;;;;;6.13;3.80;;;;;;;;;;4980953;28;20033;-51
2022/03/10 04:30:02;;;;;;;5.95;3.72;;;;;;;;;;4980737;28;20441;-50
2022/03/10 04:32:27;;;;;;;5.38;4.28;;;;;;;;;;4980248;28;20564;-51
2022/03/10 04:34:53;;;;;;;4.72;3.58;;;;;;;;;;4980663;28;20019;-50
2022/03/10 04:37:18;;;;;;;6.00;4.00;;;;;;;;;;4980104;28;20034;-50
2022/03/10 04:39:43;;;;;;;6.10;3.70;;;;;;;;;;4980503;28;20293;-50
2022/03/10 04:42:08;;;;;;;5.40;4.07;;;;;;;;;;4980247;28;20300;-50
2022/03/10 04:44:33;;;;;;;5.83;3.73;;;;;;;;;;4980387;28;20278;-51
2022/03/10 04:46:59;;;;;;;5.87;3.43;;;;;;;;;;4979043;28;20344;-50
2022/03/10 04:49:24;;;;;;;5.77;4.20;;;;;;;;;;4980379;28;20276;-51
2022/03/10 04:51:49;;;;;;;5.57;3.50;;;;;;;;;;4973447;28;20041;-49
2022/03/10 04:54:15;;;;;;;5.40;3.55;;;;;;;;;;4980447;28;20832;-51
2022/03/10 04:56:40;;;;;;;5.32;3.50;;;;;;;;;;4979826;28;20027;-50
2022/03/10 04:59:05;;;;;;;5.40;3.78;;;;;;;;;;4978688;28;20340;-51
2022/03/10 05:01:30;;;;;;;5.23;3.37;;;;;;;;;;4979737;28;20561;-51
2022/03/10 05:03:56;;;;;;;5.60;3.43;;;;;;;;;;4979832;28;20273;-51
2022/03/10 05:06:22;;;;;;;5.83;3.60;;;;;;;;;;4979706;28;20084;-50
2022/03/10 05:08:47;;;;;;;6.60;4.03;;;;;;;;;;4979577;28;20469;-51
2022/03/10 05:11:12;;;;;;;5.83;3.63;;;;;;;;;;4980457;28;20106;-50
2022/03/10 05:13:38;;;;;;;5.97;3.80;;;;;;;;;;4978683;28;20273;-50
2022/03/10 05:16:03;;;;;;;6.50;3.83;;;;;;;;;;4979331;28;20105;-50
2022/03/10 05:18:28;;;;;;;7.22;3.80;;;;;;;;;;4980179;28;20501;-49
2022/03/10 05:20:54;;;;;;;5.87;3.80;;;;;;;;;;4979699;28;20027;-51
2022/03/10 05:23:19;;;;;;;6.20;3.75;;;;;;;;;;4980051;28;20741;-50
2022/03/10 05:25:44;;;;;;;6.87;3.60;;;;;;;;;;4981435;28;20061;-51
2022/03/10 05:28:16;;;;;;;5.87;3.60;;;;;;;;;;4983721;28;20061;-49
2022/03/10 05:30:41;;;;;;;4.80;3.45;;;;;;;;;;4983847;28;20336;-49
2022/03/10 05:33:08;;;;;;;5.03;3.17;;;;;;;;;;4983512;28;20113;-49
2022/03/10 05:35:33;;;;;;;6.43;3.45;;;;;;;;;;4983093;28;20501;-50
2022/03/10 05:37:59;;;;;;;6.75;3.25;;;;;;;;;;4983615;28;20060;-51
2022/03/10 05:40:24;;;;;;;4.82;3.40;;;;;;;;;;4983111;28;20486;-50
2022/03/10 05:42:51;;;;;;;5.27;3.57;;;;;;;;;;4983196;28;20049;-50
2022/03/10 05:45:20;;;;;;;5.65;3.53;;;;;;;;;;4979930;28;20293;-50
2022/03/10 05:47:45;;;;;;;5.97;3.80;;;;;;;;;;4980480;28;20579;-51
2022/03/10 05:50:11;;;;;;;5.47;3.47;;;;;;;;;;4979579;28;20030;-50
2022/03/10 05:52:36;;;;;;;5.93;3.13;;;;;;;;;;4977819;28;20483;-51
2022/03/10 05:55:01;;;;;;;4.60;3.20;;;;;;;;;;4982810;28;20508;-51
2022/03/10 05:57:27;;;;;;;5.82;3.22;;;;;;;;;;4989260;28;20258;-51
2022/03/10 05:59:52;;;;;;;5.80;3.30;;;;;;;;;;4992802;28;20113;-51
2022/03/10 06:02:17;;;;;;;4.63;3.20;;;;;;;;;;4986981;28;20038;-51
2022/03/10 06:04:45;;;;;;;4.53;3.30;;;;;;;;;;4986444;28;20273;-49
2022/03/10 06:07:11;;;;;;;5.47;3.58;;;;;;;;;;4985732;28;20284;-50
2022/03/10 06:09:36;;;;;;;4.90;3.27;;;;;;;;;;4987693;28;20022;-51
2022/03/10 06:12:01;;;;;;;4.93;3.20;;;;;;;;;;4988840;28;20056;-50
2022/03/10 06:14:26;;;;;;;5.03;3.10;;;;;;;;;;4989542;28;20336;-50
2022/03/10 06:16:52;;;;;;;4.73;3.37;;;;;;;;;;4988315;28;20516;-49
2022/03/10 06:19:17;;;;;;;5.30;3.35;;;;;;;;;;4986396;28;20348;-50
2022/03/10 06:21:43;;;;;;;5.40;3.40;;;;;;;;;;4986248;28;20529;-50
2022/03/10 06:24:09;;;;;;;5.57;3.65;;;;;;;;;;4986196;28;20068;-50
2022/03/10 06:26:36;;;;;;;5.50;3.23;;;;;;;;;;4986290;28;20089;-51
2022/03/10 06:29:02;;;;;;;4.80;3.03;;;;;;;;;;4983266;28;20106;-50
2022/03/10 06:31:27;;;;;;;4.55;3.05;;;;;;;;;;4981557;28;20109;-50
2022/03/10 06:33:52;;;;;;;4.57;2.92;;;;;;;;;;4982983;28;20030;-49
2022/03/10 06:36:18;;;;;;;4.93;3.30;;;;;;;;;;4983377;28;20121;-50
2022/03/10 06:38:43;;;;;;;4.38;3.00;;;;;;;;;;4981702;28;20037;-49
2022/03/10 06:41:13;;;;;;;4.93;3.10;;;;;;;;;;4981279;28;20038;-51
2022/03/10 06:43:39;;;;;;;4.40;2.95;;;;;;;;;;4981194;28;20404;-49
2022/03/10 06:46:05;;;;;;;4.00;2.60;;;;;;;;;;4981533;28;20011;-50
2022/03/10 06:48:31;;;;;;;4.13;3.00;;;;;;;;;;4981674;28;20085;-50
2022/03/10 06:50:56;;;;;;;4.50;3.07;;;;;;;;;;4981596;28;20559;-50
2022/03/10 06:53:21;;;;;;;4.33;2.60;;;;;;;;;;4980534;28;20090;-49
2022/03/10 06:55:47;;;;;;;3.93;2.77;;;;;;;;;;4981037;28;20265;-50
2022/03/10 06:58:12;;;;;;;4.20;2.78;;;;;;;;;;4981397;28;20045;-51
2022/03/10 07:00:37;;;;;;;4.03;2.77;;;;;;;;;;4973653;28;20208;-50
2022/03/10 07:03:03;;;;;;;5.23;2.57;;;;;;;;;;4964840;28;20686;-49
2022/03/10 07:05:29;;;;;;;4.32;2.80;;;;;;;;;;4981076;28;20418;-50
2022/03/10 07:07:54;;;;;;;4.65;2.90;;;;;;;;;;4981614;28;20018;-49
2022/03/10 07:10:19;;;;;;;4.30;2.90;;;;;;;;;;4981578;28;20029;-50
2022/03/10 07:12:44;;;;;;;5.00;3.17;;;;;;;;;;4977896;28;20462;-49
2022/03/10 07:15:10;;;;;;;3.30;2.40;;;;;;;;;;4980745;28;20089;-51
2022/03/10 07:17:36;;;;;;;3.60;2.50;;;;;;;;;;4981481;28;20257;-50
2022/03/10 07:20:01;;;;;;;3.22;2.38;;;;;;;;;;4981397;28;20038;-52
2022/03/10 07:22:26;;;;;;;3.87;2.40;;;;;;;;;;4980614;28;20105;-50
2022/03/10 07:24:51;;;;;;;3.90;2.57;;;;;;;;;;4981127;28;20101;-50
2022/03/10 07:27:17;;;;;;;4.30;3.30;;;;;;;;;;4981138;28;20780;-49
2022/03/10 07:29:42;;;;;;;4.65;2.60;;;;;;;;;;4980966;28;20297;-50
2022/03/10 07:32:07;;;;;;;3.33;2.40;;;;;;;;;;4979674;28;20014;-49
2022/03/10 07:34:33;;;;;;;3.63;2.70;;;;;;;;;;4976835;28;20749;-50
2022/03/10 07:36:58;;;;;;;3.85;2.75;;;;;;;;;;4980913;28;20026;-51
2022/03/10 07:39:23;;;;;;;4.53;2.80;;;;;;;;;;4980675;28;20592;-49
2022/03/10 07:41:48;;;;;;;4.25;2.67;;;;;;;;;;4981162;28;20289;-49
2022/03/10 07:44:14;;;;;;;3.93;2.73;;;;;;;;;;4979790;28;20181;-50
2022/03/10 07:46:39;;;;;;;3.87;2.50;;;;;;;;;;4978983;28;20285;-50
2022/03/10 07:49:05;;;;;;;3.85;2.70;;;;;;;;;;4960680;28;20011;-50
2022/03/10 07:51:30;;;;;;;3.50;2.38;;;;;;;;;;4962799;28;20022;-50
2022/03/10 07:53:55;;;;;;;4.07;2.67;;;;;;;;;;4962660;28;20137;-51
2022/03/10 07:56:20;;;;;;;5.07;2.92;;;;;;;;;;4963233;28;20190;-49
2022/03/10 07:58:46;;;;;;;4.97;2.80;;;;;;;;;;4975438;28;20026;-50
2022/03/10 08:01:11;;;;;;;3.77;2.47;;;;;;;;;;4980490;28;20410;-49
2022/03/10 08:03:37;;;;;;;4.10;2.63;;;;;;;;;;4979944;28;20536;-49
2022/03/10 08:06:02;;;;;;;4.50;3.00;;;;;;;;;;4981276;28;20266;-49
2022/03/10 08:08:28;;;;;;;4.67;3.00;;;;;;;;;;4980258;28;20516;-49
2022/03/10 08:10:53;;;;;;;3.97;2.47;;;;;;;;;;4981278;28;20289;-49
2022/03/10 08:13:20;;;;;;;3.83;2.90;;;;;;;;;;4980636;28;20178;-49
2022/03/10 08:15:45;;;;;;;4.32;2.78;;;;;;;;;;4980174;28;20336;-52
2022/03/10 08:18:10;;;;;;;3.90;2.60;;;;;;;;;;4981164;28;20022;-50
2022/03/10 08:20:35;;;;;;;4.20;2.78;;;;;;;;;;4981005;28;20307;-50
2022/03/10 08:23:02;;;;;;;5.37;2.77;;;;;;;;;;4980571;28;20030;-50
2022/03/10 08:25:27;;;;;;;5.25;3.15;;;;;;;;;;4999445;28;20030;-50
2022/03/10 08:27:52;;;;;;;4.45;2.90;;;;;;;;;;4976077;28;20029;-49
2022/03/10 08:30:18;;;;;;;4.40;3.10;;;;;;;;;;4980448;28;20194;-49
2022/03/10 08:32:43;;;;;;;4.27;3.27;;;;;;;;;;4980676;28;20323;-49
2022/03/10 08:35:09;;;;;;;4.53;2.70;;;;;;;;;;4980409;28;20802;-49
2022/03/10 08:37:34;;;;;;;4.88;3.28;;;;;;;;;;4980352;28;20026;-47
2022/03/10 08:39:59;;;;;;;4.30;3.10;;;;;;;;;;4980589;28;20130;-49
2022/03/10 08:42:24;;;;;;;4.87;2.53;;;;;;;;;;4980725;28;20336;-49
2022/03/10 08:44:50;;;;;;;4.57;3.00;;;;;;;;;;4980004;28;20276;-49
2022/03/10 08:47:15;;;;;;;4.38;3.08;;;;;;;;;;4980268;28;20063;-51
2022/03/10 08:49:40;;;;;;;4.20;2.63;;;;;;;;;;4978866;28;20545;-51
2022/03/10 08:52:05;;;;;;;5.30;2.90;;;;;;;;;;4979883;28;20635;-49
2022/03/10 08:54:31;;;;;;;4.22;2.88;;;;;;;;;;4978971;28;20125;-50
2022/03/10 08:56:56;;;;;;;5.40;2.80;;;;;;;;;;4980614;28;20037;-49
2022/03/10 08:59:21;;;;;;;5.40;3.20;;;;;;;;;;4980361;28;20053;-49
2022/03/10 09:01:46;;;;;;;5.47;3.67;;;;;;;;;;4982776;28;20036;-49
2022/03/10 09:04:11;;;;;;;5.40;3.20;;;;;;;;;;4984305;28;20022;-49
2022/03/10 09:06:37;;;;;;;5.03;2.87;;;;;;;;;;4984057;28;20141;-50
2022/03/10 09:09:03;;;;;;;5.03;3.10;;;;;;;;;;4982418;28;20133;-50
2022/03/10 09:11:28;;;;;;;4.50;2.95;;;;;;;;;;4983924;28;20331;-50
2022/03/10 09:13:53;;;;;;;5.47;3.20;;;;;;;;;;4984309;28;20034;-50
2022/03/10 09:16:19;;;;;;;5.20;3.43;;;;;;;;;;4981954;28;20470;-49
2022/03/10 09:18:45;;;;;;;6.32;3.97;;;;;;;;;;4984152;28;20038;-51
2022/03/10 09:21:17;;;;;;;6.85;4.07;;;;;;;;;;4983289;28;20054;-49
2022/03/10 09:23:43;;;;;;;7.45;4.10;;;;;;;;;;4982264;28;20026;-50
2022/03/10 09:26:08;;;;;;;6.53;4.07;;;;;;;;;;4983588;28;20081;-49
2022/03/10 09:28:33;;;;;;;6.47;4.22;;;;;;;;;;4983766;28;20022;-49
2022/03/10 09:30:58;;;;;;;7.20;4.25;;;;;;;;;;4983696;28;20689;-49
2022/03/10 09:33:24;;;;;;;7.50;4.05;;;;;;;;;;4983312;28;20485;-49
2022/03/10 09:35:49;;;;;;;7.30;4.22;;;;;;;;;;4982509;28;20022;-50
2022/03/10 09:38:14;;;;;;;7.75;4.70;;;;;;;;;;4983089;28;20034;-49
2022/03/10 09:40:40;;;;;;;6.75;3.90;;;;;;;;;;4983320;28;20037;-49
2022/03/10 09:43:05;;;;;;;7.73;4.30;;;;;;;;;;4983429;28;20030;-51
2022/03/10 09:45:30;;;;;;;6.63;4.40;;;;;;;;;;4982717;28;20034;-50
2022/03/10 09:47:55;;;;;;;6.18;3.20;;;;;;;;;;4983862;28;20029;-49
2022/03/10 09:50:21;;;;;;;6.40;4.30;;;;;;;;;;4983451;28;20030;-50
2022/03/10 09:52:46;;;;;;;6.77;4.13;;;;;;;;;;4995847;28;20154;-50
2022/03/10 09:55:12;;;;;;;8.13;4.30;;;;;;;;;;4985033;28;20124;-51
2022/03/10 09:57:38;;;;;;;8.15;4.43;;;;;;;;;;4982987;28;20057;-50
2022/03/10 10:00:03;;;;;;;6.10;4.40;;;;;;;;;;4980850;28;20383;-51
2022/03/10 10:02:29;;;;;;;7.70;4.55;;;;;;;;;;4982666;28;20041;-50
2022/03/10 10:04:55;;;;;;;8.45;4.82;;;;;;;;;;4983318;28;20022;-49
2022/03/10 10:07:30;;;;;;;9.00;5.03;;;;;;;;;;4982948;28;20065;-49
2022/03/10 10:09:56;;;;;;;9.05;4.65;;;;;;;;;;4983267;28;20133;-50
2022/03/10 10:12:24;;;;;;;9.27;5.00;;;;;;;;;;4982210;28;20104;-50
2022/03/10 10:14:50;;;;;;;9.82;5.80;;;;;;;;;;4981515;28;20028;-50
2022/03/10 10:17:15;;;;;;;10.83;6.60;;;;;;;;;;4983017;28;20022;-50
2022/03/10 10:19:41;;;;;;;9.00;5.15;;;;;;;;;;4982831;28;20261;-49
2022/03/10 10:22:09;;;;;;;8.57;5.38;;;;;;;;;;4980335;28;20030;-51
2022/03/10 10:24:35;;;;;;;9.88;6.18;;;;;;;;;;4982583;28;20014;-51
2022/03/10 10:27:10;;;;;;;8.93;5.65;;;;;;;;;;4983230;28;20544;-51
2022/03/10 10:29:44;;;;;;;9.82;6.25;;;;;;;;;;4970541;28;20608;-50
2022/03/10 10:32:09;;;;;;;11.93;6.60;;;;;;;;;;4982549;28;20023;-51
2022/03/10 10:34:34;;;;;;;10.87;6.10;;;;;;;;;;4982308;28;20026;-53
2022/03/10 10:37:00;;;;;;;10.37;6.10;;;;;;;;;;4982941;28;20269;-49
2022/03/10 10:39:25;;;;;;;9.77;6.03;;;;;;;;;;4981612;28;20037;-50
2022/03/10 10:41:50;;;;;;;11.63;6.53;;;;;;;;;;4982890;28;20293;-50
2022/03/10 10:44:16;;;;;;;11.90;7.40;;;;;;;;;;4982846;28;20014;-50
2022/03/10 10:46:43;;;;;;;12.27;7.78;;;;;;;;;;4981930;28;20038;-50
2022/03/10 10:49:17;;;;;;;10.52;6.35;;;;;;;;;;4981853;28;20037;-50
2022/03/10 10:51:43;;;;;;;12.00;6.75;;;;;;;;;;4982041;28;20101;-51
2022/03/10 10:54:23;;;;;;;11.35;6.38;;;;;;;;;;4981602;28;20196;-51
2022/03/10 10:56:55;;;;;;;11.75;7.25;;;;;;;;;;4979688;28;20034;-51
2022/03/10 10:59:26;;;;;;;12.30;7.75;;;;;;;;;;4981738;28;20026;-50
2022/03/10 11:01:52;;;;;;;10.88;7.07;;;;;;;;;;4965160;28;20037;-51
2022/03/10 11:04:17;;;;;;;12.43;7.70;;;;;;;;;;4972274;28;20406;-51
2022/03/10 11:06:44;;;;;;;14.00;7.60;;;;;;;;;;4980329;28;20057;-51
2022/03/10 11:09:09;;;;;;;12.82;7.22;;;;;;;;;;4981185;28;20058;-51
2022/03/10 11:11:37;;;;;;;11.90;7.28;;;;;;;;;;4984133;28;20022;-50
2022/03/10 11:14:02;;;;;;;11.40;6.75;;;;;;;;;;4982092;28;20050;-50
2022/03/10 11:16:27;;;;;;;12.02;7.50;;;;;;;;;;4981383;28;20080;-51
2022/03/10 11:18:52;;;;;;;12.87;7.30;;;;;;;;;;4980425;28;21166;-51
2022/03/10 11:21:27;;;;;;;11.48;6.80;;;;;;;;;;4980678;28;20296;-50
2022/03/10 11:24:00;;;;;;;12.30;6.85;;;;;;;;;;4969736;28;20054;-51
2022/03/10 11:26:34;;;;;;;12.75;7.32;;;;;;;;;;4976784;28;20023;-50
2022/03/10 11:28:59;;;;;;;10.75;6.60;;;;;;;;;;4981532;28;20109;-51
2022/03/10 11:31:25;;;;;;;11.02;7.38;;;;;;;;;;4979084;28;20492;-51
2022/03/10 11:33:50;;;;;;;9.80;6.47;;;;;;;;;;4980186;28;20025;-50
2022/03/10 11:36:19;;;;;;;10.40;6.80;;;;;;;;;;4979586;28;20042;-51
2022/03/10 11:38:56;;;;;;;10.82;6.90;;;;;;;;;;4981160;28;20026;-51
2022/03/10 11:41:29;;;;;;;11.13;6.95;;;;;;;;;;4980738;28;20073;-53
2022/03/10 11:43:58;;;;;;;12.45;7.20;;;;;;;;;;4979655;28;20022;-50
2022/03/10 11:46:27;;;;;;;10.85;6.72;;;;;;;;;;4982773;28;20145;-49
2022/03/10 11:49:06;;;;;;;10.60;6.43;;;;;;;;;;4985137;28;20026;-51
2022/03/10 11:51:52;;;;;;;10.63;6.53;;;;;;;;;;4986250;28;20026;-51
2022/03/10 11:54:27;;;;;;;11.40;6.70;;;;;;;;;;4988109;28;20046;-51
2022/03/10 11:56:52;;;;;;;10.65;6.45;;;;;;;;;;4987357;28;21940;-51
2022/03/10 11:59:18;;;;;;;10.18;6.43;;;;;;;;;;4988507;28;20038;-50
2022/03/10 12:01:43;;;;;;;11.75;7.15;;;;;;;;;;4988670;28;20038;-50
2022/03/10 12:04:12;;;;;;;9.90;6.30;;;;;;;;;;4988955;28;20101;-52
2022/03/10 12:06:37;;;;;;;11.73;6.78;;;;;;;;;;4989215;28;20106;-51
2022/03/10 12:09:03;;;;;;;10.73;7.17;;;;;;;;;;4988184;28;20720;-51
2022/03/10 12:11:46;;;;;;;9.98;5.97;;;;;;;;;;4991036;28;20277;-50
2022/03/10 12:14:27;;;;;;;10.70;6.32;;;;;;;;;;4990009;28;20037;-51
2022/03/10 12:16:52;;;;;;;11.00;6.90;;;;;;;;;;4989761;28;20914;-51
2022/03/10 12:19:19;;;;;;;10.82;6.40;;;;;;;;;;4985285;28;20018;-50
2022/03/10 12:21:44;;;;;;;10.75;6.75;;;;;;;;;;4981096;28;20030;-51
2022/03/10 12:24:11;;;;;;;9.85;6.13;;;;;;;;;;4981114;28;20029;-51
2022/03/10 12:26:37;;;;;;;9.43;5.50;;;;;;;;;;4980028;28;20026;-51
2022/03/10 12:29:12;;;;;;;10.43;6.85;;;;;;;;;;4981450;28;20041;-50
2022/03/10 12:31:37;;;;;;;10.60;6.30;;;;;;;;;;4980513;28;20112;-50
2022/03/10 12:34:07;;;;;;;10.80;6.85;;;;;;;;;;4980126;28;20049;-51
2022/03/10 12:36:33;;;;;;;10.38;6.13;;;;;;;;;;4979849;28;20058;-50
2022/03/10 12:39:04;;;;;;;11.93;7.15;;;;;;;;;;4979573;28;20100;-51
2022/03/10 12:41:33;;;;;;;10.75;6.80;;;;;;;;;;4979267;28;20042;-52
2022/03/10 12:44:01;;;;;;;11.73;8.00;;;;;;;;;;4979479;28;20860;-52
2022/03/10 12:46:27;;;;;;;12.07;7.43;;;;;;;;;;4978355;28;20030;-50
2022/03/10 12:48:58;;;;;;;11.05;6.85;;;;;;;;;;4978087;28;20019;-50
2022/03/10 12:51:24;;;;;;;11.80;7.00;;;;;;;;;;4978548;28;20034;-49
2022/03/10 12:53:51;;;;;;;12.07;7.72;;;;;;;;;;4979406;28;20038;-50
2022/03/10 12:56:16;;;;;;;14.48;7.90;;;;;;;;;;4979316;28;20022;-51
2022/03/10 12:58:41;;;;;;;13.67;7.47;;;;;;;;;;4979915;28;20030;-50
2022/03/10 13:01:07;;;;;;;12.18;7.82;;;;;;;;;;4977455;28;20030;-50
2022/03/10 13:03:46;;;;;;;12.82;7.40;;;;;;;;;;4978416;28;20022;-51
2022/03/10 13:06:12;;;;;;;12.38;7.35;;;;;;;;;;4979747;28;20601;-51
2022/03/10 13:08:40;;;;;;;11.32;7.20;;;;;;;;;;4979729;28;20034;-51
2022/03/10 13:11:06;;;;;;;11.45;7.20;;;;;;;;;;4979663;28;20084;-49
2022/03/10 13:13:31;;;;;;;11.48;6.78;;;;;;;;;;4980069;28;20319;-51
2022/03/10 13:16:00;;;;;;;11.37;7.17;;;;;;;;;;4979597;28;20413;-50
2022/03/10 13:18:26;;;;;;;12.75;7.63;;;;;;;;;;4978144;28;20285;-50
2022/03/10 13:20:51;;;;;;;12.27;7.43;;;;;;;;;;4980213;28;20120;-50
2022/03/10 13:23:16;;;;;;;12.60;7.35;;;;;;;;;;4979598;28;20536;-50
2022/03/10 13:25:43;;;;;;;12.63;7.60;;;;;;;;;;4978376;28;20018;-50
2022/03/10 13:28:11;;;;;;;11.77;6.80;;;;;;;;;;4979985;28;20301;-50
2022/03/10 13:30:37;;;;;;;12.27;7.45;;;;;;;;;;4979598;28;20114;-51
2022/03/10 13:33:03;;;;;;;12.77;7.63;;;;;;;;;;4980110;28;20117;-50
2022/03/10 13:35:38;;;;;;;12.43;7.43;;;;;;;;;;4979873;28;20562;-51
2022/03/10 13:38:03;;;;;;;11.90;7.07;;;;;;;;;;4979493;28;20464;-50
2022/03/10 13:40:30;;;;;;;11.38;7.18;;;;;;;;;;4979843;28;20034;-50
2022/03/10 13:42:56;;;;;;;11.90;7.07;;;;;;;;;;4978975;28;20026;-51
2022/03/10 13:45:21;;;;;;;10.50;6.53;;;;;;;;;;4979696;28;20081;-51
2022/03/10 13:47:52;;;;;;;11.82;7.47;;;;;;;;;;4980407;28;20552;-50
2022/03/10 13:50:22;;;;;;;11.57;6.80;;;;;;;;;;4983344;28;20037;-50
2022/03/10 13:53:04;;;;;;;12.77;7.88;;;;;;;;;;4983017;28;20058;-50
2022/03/10 13:55:30;;;;;;;8.52;5.38;;;;;;;;;;4982835;28;20033;-51
2022/03/10 13:57:56;;;;;;;11.82;6.78;;;;;;;;;;4962562;28;20110;-52
2022/03/10 14:00:31;;;;;;;10.65;6.72;;;;;;;;;;4972688;28;20031;-50
2022/03/10 14:02:57;;;;;;;9.75;6.30;;;;;;;;;;4983038;28;20022;-50
2022/03/10 14:05:22;;;;;;;12.65;6.70;;;;;;;;;;4981315;28;20032;-50
2022/03/10 14:08:08;;;;;;;10.40;6.50;;;;;;;;;;4981811;28;20022;-51
2022/03/10 14:10:33;;;;;;;11.68;7.22;;;;;;;;;;4982931;28;20050;-51
2022/03/10 14:12:58;;;;;;;11.73;6.97;;;;;;;;;;4983226;28;20496;-51
2022/03/10 14:15:27;;;;;;;11.43;6.67;;;;;;;;;;4981565;28;20459;-51
2022/03/10 14:17:54;;;;;;;11.20;7.00;;;;;;;;;;4983016;28;20168;-49
2022/03/10 14:20:20;;;;;;;11.95;6.47;;;;;;;;;;4982476;28;20034;-51
2022/03/10 14:22:45;;;;;;;10.20;6.82;;;;;;;;;;4982723;28;20027;-51
2022/03/10 14:25:10;;;;;;;11.38;7.00;;;;;;;;;;4982645;28;20040;-51
2022/03/10 14:27:43;;;;;;;15.80;6.37;;;;;;;;;;4982733;28;20084;-49
2022/03/10 14:30:11;;;;;;;11.75;6.32;;;;;;;;;;4982541;28;20037;-50
2022/03/10 14:32:36;;;;;;;9.88;6.00;;;;;;;;;;4982369;28;20482;-50
2022/03/10 14:35:02;;;;;;;8.60;5.70;;;;;;;;;;4982568;28;20030;-50
2022/03/10 14:37:27;;;;;;;10.00;6.55;;;;;;;;;;4981023;28;20392;-51